createdAt,value
2022-11-18T00:02:37.542Z,87.70
2022-11-18T00:05:41.313Z,87.80
2022-11-18T00:08:45.344Z,87.80
2022-11-18T00:12:01.924Z,87.80
2022-11-18T00:15:06.256Z,87.70
2022-11-18T00:18:11.920Z,87.70
2022-11-18T00:21:15.738Z,87.80
2022-11-18T00:24:19.601Z,87.90
2022-11-18T00:27:23.047Z,87.90
2022-11-18T00:30:26.848Z,87.90
2022-11-18T00:33:32.822Z,87.90
2022-11-18T00:36:36.547Z,87.90
2022-11-18T00:39:40.241Z,88.00
2022-11-18T00:42:53.221Z,88.10
2022-11-18T00:45:57.463Z,88.10
2022-11-18T00:49:03.066Z,88.10
2022-11-18T00:52:06.937Z,88.10
2022-11-18T00:55:11.269Z,88.10
2022-11-18T00:58:15.614Z,88.10
2022-11-18T01:01:19.394Z,88.10
2022-11-18T01:04:25.083Z,88.20
2022-11-18T01:07:28.811Z,88.20
2022-11-18T01:10:32.614Z,88.20
2022-11-18T01:13:34.351Z,88.20
2022-11-18T01:16:38.049Z,88.20
2022-11-18T01:19:43.788Z,88.20
2022-11-18T01:22:47.480Z,88.30
2022-11-18T01:25:52.279Z,88.30
2022-11-18T01:28:57.960Z,88.30
2022-11-18T01:32:23.380Z,88.20
2022-11-18T01:35:27.180Z,88.20
2022-11-18T01:38:30.948Z,88.20
2022-11-18T01:41:34.667Z,88.30
2022-11-18T01:45:04.454Z,88.20
2022-11-18T01:48:12.630Z,88.30
2022-11-18T01:51:21.346Z,88.20
2022-11-18T01:54:28.846Z,88.20
2022-11-18T01:57:32.738Z,88.30
2022-11-18T02:00:36.806Z,88.30
2022-11-18T02:03:41.125Z,88.30
2022-11-18T02:06:48.391Z,88.20
2022-11-18T02:09:53.405Z,88.20
2022-11-18T02:12:58.340Z,88.30
2022-11-18T02:16:10.091Z,88.30
2022-11-18T02:19:33.867Z,88.40
2022-11-18T02:22:55.261Z,88.40
2022-11-18T02:26:28.153Z,88.40
2022-11-18T02:29:39.426Z,88.50
2022-11-18T02:32:45.800Z,88.40
2022-11-18T02:35:55.515Z,88.40
2022-11-18T02:39:04.595Z,88.50
2022-11-18T02:42:12.123Z,88.40
2022-11-18T02:45:20.508Z,88.40
2022-11-18T02:48:26.183Z,88.40
2022-11-18T02:51:32.980Z,88.40
2022-11-18T02:54:40.812Z,88.40
2022-11-18T02:57:46.268Z,88.40
2022-11-18T03:00:57.557Z,88.40
2022-11-18T03:04:01.533Z,88.40
2022-11-18T03:07:12.603Z,88.40
2022-11-18T03:10:16.671Z,88.50
2022-11-18T03:13:22.799Z,88.40
2022-11-18T03:16:33.251Z,88.40
2022-11-18T03:19:48.972Z,88.20
2022-11-18T03:22:57.779Z,88.30
2022-11-18T03:26:04.381Z,88.30
2022-11-18T03:29:14.300Z,88.40
2022-11-18T03:32:25.847Z,88.50
2022-11-18T03:35:33.795Z,88.40
2022-11-18T03:38:41.662Z,89.10
2022-11-18T03:41:50.340Z,88.50
2022-11-18T03:44:57.074Z,88.50
2022-11-18T03:48:09.039Z,88.60
2022-11-18T03:51:16.353Z,88.60
2022-11-18T03:54:24.792Z,88.60
2022-11-18T03:57:36.516Z,88.60
2022-11-18T04:00:44.567Z,88.60
2022-11-18T04:03:50.253Z,88.60
2022-11-18T04:06:59.704Z,88.60
2022-11-18T04:10:10.359Z,88.60
2022-11-18T04:13:20.129Z,88.70
2022-11-18T04:16:23.798Z,88.70
2022-11-18T04:19:30.302Z,88.70
2022-11-18T04:22:34.024Z,88.70
2022-11-18T04:25:38.218Z,88.70
2022-11-18T04:28:41.856Z,88.90
2022-11-18T04:31:45.615Z,88.80
2022-11-18T04:34:51.196Z,88.80
2022-11-18T04:37:55.000Z,88.80
2022-11-18T04:40:58.652Z,89.40
2022-11-18T04:44:12.277Z,88.80
2022-11-18T04:47:15.940Z,88.80
2022-11-18T04:50:21.598Z,88.80
2022-11-18T04:53:25.293Z,88.80
2022-11-18T04:56:29.046Z,88.80
2022-11-18T04:59:32.812Z,88.80
2022-11-18T05:02:36.473Z,88.80
2022-11-18T05:05:42.123Z,88.80
2022-11-18T05:08:45.992Z,88.80
2022-11-18T05:12:03.278Z,88.80
2022-11-18T05:15:08.135Z,88.90
2022-11-18T05:18:13.289Z,88.90
2022-11-18T05:21:18.973Z,88.90
2022-11-18T05:24:23.691Z,88.90
2022-11-18T05:27:27.623Z,88.90
2022-11-18T05:30:31.091Z,88.90
2022-11-18T05:33:34.746Z,88.90
2022-11-18T05:36:40.352Z,88.80
2022-11-18T05:39:44.057Z,88.80
2022-11-18T05:43:00.880Z,88.90
2022-11-18T05:46:05.578Z,88.90
2022-11-18T05:49:09.436Z,88.90
2022-11-18T05:52:15.031Z,89.00
2022-11-18T05:55:19.492Z,88.90
2022-11-18T05:58:25.288Z,88.90
2022-11-18T06:01:34.078Z,88.90
2022-11-18T06:04:41.979Z,88.90
2022-11-18T06:07:47.952Z,88.90
2022-11-18T06:10:52.611Z,91.00
2022-11-18T06:14:02.719Z,88.90
2022-11-18T06:17:10.952Z,88.90
2022-11-18T06:20:14.999Z,89.00
2022-11-18T06:23:20.852Z,89.00
2022-11-18T06:26:24.496Z,89.00
2022-11-18T06:29:29.423Z,89.00
2022-11-18T06:32:33.510Z,88.90
2022-11-18T06:35:37.254Z,88.90
2022-11-18T06:38:42.874Z,89.00
2022-11-18T06:41:46.561Z,89.20
2022-11-18T06:44:50.267Z,89.00
2022-11-18T06:47:57.555Z,89.10
2022-11-18T06:51:01.308Z,89.00
2022-11-18T06:54:10.709Z,89.00
2022-11-18T06:57:15.083Z,89.00
2022-11-18T07:00:19.240Z,89.00
2022-11-18T07:03:22.979Z,89.10
2022-11-18T07:06:29.081Z,89.00
2022-11-18T07:09:35.781Z,89.20
2022-11-18T07:12:39.507Z,89.10
2022-11-18T07:15:43.450Z,89.10
2022-11-18T07:18:47.440Z,89.10
2022-11-18T07:21:51.098Z,89.10
2022-11-18T07:24:57.191Z,89.00
2022-11-18T07:28:00.979Z,89.00
2022-11-18T07:31:05.924Z,89.10
2022-11-18T07:34:09.708Z,89.10
2022-11-18T07:37:13.398Z,89.10
2022-11-18T07:40:19.534Z,89.20
2022-11-18T07:43:23.261Z,89.20
2022-11-18T07:46:28.963Z,89.20
2022-11-18T07:49:32.607Z,89.20
2022-11-18T07:52:36.272Z,89.20
2022-11-18T07:55:41.925Z,89.20
2022-11-18T07:58:46.037Z,89.20
2022-11-18T08:01:49.737Z,89.20
2022-11-18T08:04:53.521Z,89.20
2022-11-18T08:07:57.222Z,89.20
2022-11-18T08:11:05.437Z,89.20
2022-11-18T08:14:09.284Z,89.20
2022-11-18T08:17:12.974Z,89.20
2022-11-18T08:20:17.046Z,89.20
2022-11-18T08:23:20.809Z,89.20
2022-11-18T08:26:27.075Z,89.30
2022-11-18T08:29:32.953Z,89.30
2022-11-18T08:32:36.855Z,89.30
2022-11-18T08:35:40.506Z,89.30
2022-11-18T08:38:44.227Z,89.30
2022-11-18T08:41:49.967Z,89.10
2022-11-18T08:44:54.166Z,89.20
2022-11-18T08:47:57.882Z,89.30
2022-11-18T08:51:02.126Z,89.40
2022-11-18T08:54:06.307Z,89.40
2022-11-18T08:57:11.960Z,89.40
2022-11-18T09:00:16.945Z,89.40
2022-11-18T09:03:20.677Z,89.40
2022-11-18T09:06:25.900Z,89.40
2022-11-18T09:09:29.619Z,89.40
2022-11-18T09:12:35.316Z,89.40
2022-11-18T09:15:39.013Z,89.40
2022-11-18T09:18:42.783Z,89.40
2022-11-18T09:21:46.522Z,89.40
2022-11-18T09:24:50.276Z,89.40
2022-11-18T09:27:55.898Z,89.40
2022-11-18T09:30:59.632Z,89.50
2022-11-18T09:34:03.422Z,89.50
2022-11-18T09:37:07.505Z,89.50
2022-11-18T09:40:17.853Z,89.50
2022-11-18T09:43:30.092Z,89.60
2022-11-18T09:46:44.834Z,89.50
2022-11-18T09:49:50.074Z,89.50
2022-11-18T09:53:06.056Z,89.50
2022-11-18T09:56:15.871Z,89.50
2022-11-18T09:59:23.337Z,89.60
2022-11-18T10:02:39.320Z,89.60
2022-11-18T10:05:49.600Z,89.60
2022-11-18T10:09:14.442Z,89.60
2022-11-18T10:12:28.344Z,89.60
2022-11-18T10:15:38.837Z,89.60
2022-11-18T10:19:05.096Z,89.60
2022-11-18T10:22:24.359Z,89.60
2022-11-18T10:25:28.589Z,89.60
2022-11-18T10:28:32.675Z,89.50
2022-11-18T10:31:40.562Z,89.60
2022-11-18T10:34:50.676Z,89.60
2022-11-18T10:38:08.127Z,89.60
2022-11-18T10:41:16.058Z,89.60
2022-11-18T10:44:34.889Z,89.50
2022-11-18T10:47:41.032Z,89.60
2022-11-18T10:50:55.269Z,89.50
2022-11-18T10:54:09.724Z,89.60
2022-11-18T10:57:20.438Z,89.70
2022-11-18T11:00:40.752Z,89.60
2022-11-18T11:03:58.468Z,89.70
2022-11-18T11:07:17.105Z,89.70
2022-11-18T11:10:23.850Z,89.60
2022-11-18T11:13:31.786Z,89.50
2022-11-18T11:16:46.013Z,89.60
2022-11-18T11:19:58.393Z,89.70
2022-11-18T11:23:02.400Z,89.70
2022-11-18T11:30:04.849Z,89.70
2022-11-18T11:33:24.094Z,89.70
2022-11-18T11:36:39.245Z,89.70
2022-11-18T11:39:55.382Z,89.70
2022-11-18T11:43:24.592Z,89.70
2022-11-18T11:46:35.421Z,89.80
2022-11-18T11:49:53.586Z,89.70
2022-11-18T11:53:16.653Z,89.70
2022-11-18T11:56:27.311Z,89.70
2022-11-18T11:59:38.668Z,89.70
2022-11-18T12:02:59.539Z,89.70
2022-11-18T12:06:03.308Z,89.70
2022-11-18T12:09:18.615Z,89.70
2022-11-18T12:12:37.520Z,89.70
2022-11-18T12:15:57.976Z,89.70
2022-11-18T12:19:08.437Z,89.70
2022-11-18T12:22:12.089Z,89.70
2022-11-18T12:25:46.247Z,89.70
2022-11-18T12:28:51.943Z,90.10
2022-11-18T12:31:57.301Z,89.40
2022-11-18T12:35:03.842Z,89.40
2022-11-18T12:38:07.608Z,89.40
2022-11-18T12:41:54.351Z,89.40
2022-11-18T12:45:34.996Z,89.30
2022-11-18T12:48:41.457Z,89.30
2022-11-18T12:51:45.723Z,89.30
2022-11-18T12:54:50.636Z,89.30
2022-11-18T12:57:54.392Z,89.30
2022-11-18T13:01:13.371Z,89.30
2022-11-18T13:04:19.516Z,89.30
2022-11-18T13:07:36.507Z,89.20
2022-11-18T13:10:50.535Z,89.20
2022-11-18T13:14:12.099Z,89.30
2022-11-18T13:17:42.567Z,89.20
2022-11-18T13:20:56.917Z,89.10
2022-11-18T13:24:00.921Z,89.20
2022-11-18T13:27:05.147Z,89.20
2022-11-18T13:30:13.421Z,89.20
2022-11-18T13:33:19.527Z,89.30
2022-11-18T13:36:25.475Z,89.10
2022-11-18T13:39:31.300Z,89.20
2022-11-18T13:42:34.978Z,89.20
2022-11-18T13:45:40.663Z,89.20
2022-11-18T13:48:50.993Z,89.20
2022-11-18T13:51:56.262Z,89.20
2022-11-18T13:55:02.347Z,89.00
2022-11-18T13:58:21.854Z,89.10
2022-11-18T14:01:27.743Z,89.10
2022-11-18T14:04:34.733Z,89.00
2022-11-18T14:07:39.023Z,89.00
2022-11-18T14:10:45.477Z,89.00
2022-11-18T14:14:01.261Z,89.00
2022-11-18T14:17:19.433Z,89.00
2022-11-18T14:20:26.075Z,88.90
2022-11-18T14:23:32.114Z,88.90
2022-11-18T14:26:37.965Z,88.90
2022-11-18T14:29:51.280Z,88.80
2022-11-18T14:33:10.900Z,88.80
2022-11-18T14:36:17.966Z,88.90
2022-11-18T14:39:26.776Z,88.90
2022-11-18T14:42:31.280Z,88.80
2022-11-18T14:45:34.841Z,88.80
2022-11-18T14:48:38.980Z,88.80
2022-11-18T14:51:44.804Z,88.70
2022-11-18T14:54:51.525Z,88.70
2022-11-18T14:57:55.205Z,88.70
2022-11-18T15:00:58.971Z,88.70
2022-11-18T15:04:02.683Z,88.80
2022-11-18T15:07:10.218Z,88.80
2022-11-18T15:10:16.663Z,88.70
2022-11-18T15:13:20.304Z,88.70
2022-11-18T15:16:25.865Z,88.60
2022-11-18T15:19:32.293Z,88.70
2022-11-18T15:22:38.085Z,88.70
2022-11-18T15:25:41.907Z,88.80
2022-11-18T15:28:45.535Z,88.60
2022-11-18T15:31:49.890Z,88.60
2022-11-18T15:34:53.634Z,88.50
2022-11-18T15:37:59.248Z,88.40
2022-11-18T15:41:02.966Z,88.50
2022-11-18T15:44:07.110Z,88.60
2022-11-18T15:47:10.836Z,88.60
2022-11-18T15:50:14.686Z,88.60
2022-11-18T15:53:20.047Z,88.50
2022-11-18T15:56:29.113Z,88.60
2022-11-18T15:59:32.912Z,88.50
2022-11-18T16:02:36.567Z,88.50
2022-11-18T16:05:40.217Z,88.50
2022-11-18T16:08:45.926Z,88.50
2022-11-18T16:12:02.760Z,88.50
2022-11-18T16:15:20.554Z,88.40
2022-11-18T16:18:24.811Z,88.40
2022-11-18T16:21:29.811Z,88.40
2022-11-18T16:24:35.569Z,88.40
2022-11-18T16:27:39.250Z,88.40
2022-11-18T16:30:56.065Z,88.30
2022-11-18T16:33:59.749Z,88.30
2022-11-18T16:37:05.537Z,88.40
2022-11-18T16:40:13.010Z,88.40
2022-11-18T16:43:16.669Z,88.40
2022-11-18T16:46:20.322Z,88.40
2022-11-18T16:49:26.201Z,88.40
2022-11-18T16:52:30.110Z,88.30
2022-11-18T16:55:35.523Z,88.30
2022-11-18T16:58:39.711Z,88.30
2022-11-18T17:01:43.872Z,88.20
2022-11-18T17:04:47.869Z,88.20
2022-11-18T17:07:51.631Z,88.20
2022-11-18T17:10:57.204Z,88.20
2022-11-18T17:14:00.933Z,88.10
2022-11-18T17:17:04.697Z,88.20
2022-11-18T17:20:09.400Z,88.20
2022-11-18T17:23:13.178Z,88.20
2022-11-18T17:26:21.750Z,88.20
2022-11-18T17:29:25.481Z,88.20
2022-11-18T17:32:29.192Z,88.20
2022-11-18T17:35:32.848Z,88.10
2022-11-18T17:38:37.845Z,88.20
2022-11-18T17:41:56.559Z,88.20
2022-11-18T17:45:00.274Z,88.30
2022-11-18T17:48:04.002Z,88.20
2022-11-18T17:51:08.203Z,88.20
2022-11-18T17:54:12.162Z,88.20
2022-11-18T17:57:17.757Z,88.20
2022-11-18T18:00:21.889Z,88.10
2022-11-18T18:03:25.605Z,88.00
2022-11-18T18:06:29.307Z,88.00
2022-11-18T18:09:33.002Z,88.10
2022-11-18T18:12:51.905Z,88.10
2022-11-18T18:16:02.829Z,88.10
2022-11-18T18:19:08.089Z,88.00
2022-11-18T18:22:11.780Z,88.00
2022-11-18T18:25:15.533Z,87.90
2022-11-18T18:28:21.135Z,87.90
2022-11-18T18:31:24.841Z,88.00
2022-11-18T18:34:28.484Z,87.90
2022-11-18T18:37:32.132Z,87.90
2022-11-18T18:40:36.028Z,87.80
2022-11-18T18:43:41.709Z,87.90
2022-11-18T18:46:45.584Z,87.90
2022-11-18T18:49:49.215Z,87.90
2022-11-18T18:52:52.905Z,87.80
2022-11-18T18:55:57.603Z,87.80
2022-11-18T18:59:03.643Z,87.80
2022-11-18T19:02:07.336Z,87.80
2022-11-18T19:05:11.391Z,87.70
2022-11-18T19:08:15.039Z,87.70
2022-11-18T19:11:32.759Z,87.60
2022-11-18T19:14:38.480Z,87.70
2022-11-18T19:17:42.663Z,87.60
2022-11-18T19:20:46.376Z,87.60
2022-11-18T19:23:50.153Z,87.60
2022-11-18T19:26:54.346Z,87.60
2022-11-18T19:30:00.070Z,87.60
2022-11-18T19:33:04.901Z,87.60
2022-11-18T19:36:09.772Z,87.50
2022-11-18T19:39:13.578Z,88.00
2022-11-18T19:42:17.018Z,87.50
2022-11-18T19:45:22.636Z,87.40
2022-11-18T19:48:26.968Z,87.40
2022-11-18T19:51:30.822Z,87.40
2022-11-18T19:54:34.601Z,87.40
2022-11-18T19:57:38.267Z,87.40
2022-11-18T20:00:43.919Z,87.50
2022-11-18T20:03:48.957Z,87.50
2022-11-18T20:06:52.774Z,87.50
2022-11-18T20:09:56.305Z,87.50
2022-11-18T20:12:59.992Z,87.50
2022-11-18T20:16:07.480Z,87.50
2022-11-18T20:19:12.874Z,87.40
2022-11-18T20:22:16.716Z,87.40
2022-11-18T20:25:20.567Z,87.50
2022-11-18T20:28:24.474Z,87.40
2022-11-18T20:31:32.578Z,87.40
2022-11-18T20:34:39.242Z,87.30
2022-11-18T20:37:43.818Z,87.30
2022-11-18T20:40:47.566Z,87.30
2022-11-18T20:43:51.729Z,87.20
2022-11-18T20:46:57.329Z,87.30
2022-11-18T20:50:01.038Z,87.30
2022-11-18T20:53:05.038Z,87.20
2022-11-18T20:56:08.913Z,87.20
2022-11-18T20:59:12.398Z,87.30
2022-11-18T21:02:18.033Z,87.20
2022-11-18T21:05:21.942Z,87.10
2022-11-18T21:08:25.669Z,87.20
2022-11-18T21:11:30.230Z,87.20
2022-11-18T21:14:33.967Z,87.20
2022-11-18T21:17:39.567Z,87.20
2022-11-18T21:20:56.427Z,87.20
2022-11-18T21:24:01.661Z,87.10
2022-11-18T21:27:05.967Z,87.10
2022-11-18T21:30:10.881Z,87.10
2022-11-18T21:33:16.482Z,87.10
2022-11-18T21:36:21.131Z,87.10
2022-11-18T21:39:25.420Z,87.20
2022-11-18T21:42:29.125Z,87.10
2022-11-18T21:45:33.357Z,87.10
2022-11-18T21:48:39.693Z,87.20
2022-11-18T21:51:45.034Z,87.70
2022-11-18T21:54:48.720Z,87.10
2022-11-18T21:57:52.407Z,87.00
2022-11-18T22:00:56.057Z,86.90
2022-11-18T22:04:03.337Z,86.90
2022-11-18T22:07:07.209Z,87.00
2022-11-18T22:10:11.105Z,86.90
2022-11-18T22:13:14.813Z,86.90
2022-11-18T22:16:21.496Z,86.80
2022-11-18T22:19:27.119Z,86.90
2022-11-18T22:22:31.316Z,87.00
2022-11-18T22:25:34.968Z,87.00
2022-11-18T22:28:39.593Z,87.00
2022-11-18T22:31:43.384Z,87.00
2022-11-18T22:34:51.791Z,86.90
2022-11-18T22:37:55.634Z,86.90
2022-11-18T22:41:03.005Z,87.40
2022-11-18T22:44:07.989Z,86.80
2022-11-18T22:47:12.202Z,86.80
2022-11-18T22:50:19.848Z,86.80
2022-11-18T22:53:23.502Z,86.80
2022-11-18T22:56:27.200Z,86.80
2022-11-18T22:59:30.844Z,86.70
2022-11-18T23:02:34.525Z,86.70
2022-11-18T23:05:40.135Z,86.80
2022-11-18T23:08:44.515Z,86.80
2022-11-18T23:12:01.339Z,86.70
2022-11-18T23:15:05.461Z,86.70
2022-11-18T23:18:11.837Z,86.70
2022-11-18T23:21:17.847Z,86.60
2022-11-18T23:24:21.835Z,86.70
2022-11-18T23:27:25.633Z,86.70
2022-11-18T23:30:29.083Z,86.70
2022-11-18T23:33:32.792Z,86.70
2022-11-18T23:36:38.868Z,86.60
2022-11-18T23:39:42.520Z,86.60
2022-11-18T23:42:46.299Z,86.70
2022-11-18T23:45:49.763Z,86.60
2022-11-18T23:48:53.451Z,86.60
2022-11-18T23:51:59.076Z,86.50
2022-11-18T23:55:02.723Z,86.50
2022-11-18T23:58:06.425Z,86.60
